Time;durP1;ratioP1;P1;durP2;ratioP2;P2;SDS_P1;SDS_P2;PMS_P1;PMS_P2;Temp;Humidity;BMP_temperature;BMP_pressure;BME280_temperature;BME280_humidity;BME280_pressure;Samples;Min_cycle;Max_cycle;Signal;HPM_P1;HPM_P2
2023/03/16 00:00:12;;;;;;;;;;;;;;;-1.34;100.00;101276.53;5060419;28;20115;-74
2023/03/16 00:02:40;;;;;;;12.35;4.53;;;;;;;-1.35;100.00;101284.47;5043590;28;20559;-73
2023/03/16 00:05:06;;;;;;;11.18;2.03;;;;;;;-1.43;100.00;101282.19;5045110;28;20033;-74
2023/03/16 00:07:33;;;;;;;9.00;2.92;;;;;;;-1.41;100.00;101293.44;5044687;28;20020;-73
2023/03/16 00:09:58;;;;;;;11.82;3.13;;;;;;;-1.36;100.00;101320.31;5044176;28;20512;-73
2023/03/16 00:12:25;;;;;;;10.07;2.35;;;;;;;-1.35;100.00;101322.00;5043485;28;20068;-73
2023/03/16 00:14:50;;;;;;;;;;;;;;;-1.33;100.00;101320.16;5053669;28;20033;-74
2023/03/16 00:17:18;;;;;;;12.20;2.38;;;;;;;-1.36;100.00;101329.91;5038802;28;20430;-73
2023/03/16 00:19:53;;;;;;;13.45;3.20;;;;;;;-1.43;100.00;101329.34;5043101;28;20398;-73
2023/03/16 00:22:20;;;;;;;7.95;2.22;;;;;;;-1.56;100.00;101313.34;5040745;28;20363;-74
2023/03/16 00:24:46;;;;;;;10.48;2.95;;;;;;;-1.63;100.00;101288.38;5043541;28;20033;-74
2023/03/16 00:27:16;;;;;;;13.52;2.70;;;;;;;-1.64;100.00;101302.41;5044810;28;20478;-73
2023/03/16 00:29:46;;;;;;;8.52;1.98;;;;;;;-1.63;100.00;101300.63;5038721;28;20032;-74
2023/03/16 00:32:17;;;;;;;8.95;2.65;;;;;;;-1.64;100.00;101301.53;5043024;28;20044;-73
2023/03/16 00:34:44;;;;;;;23.00;4.70;;;;;;;-1.72;100.00;101302.72;5043415;28;20040;-73
2023/03/16 00:37:12;;;;;;;17.92;3.80;;;;;;;-1.73;100.00;101306.28;5040193;28;20035;-73
2023/03/16 00:39:43;;;;;;;10.07;3.83;;;;;;;-1.74;100.00;101309.81;5026252;28;20127;-74
2023/03/16 00:42:13;;;;;;;8.80;4.38;;;;;;;-1.76;100.00;101311.63;5043106;28;20021;-74
2023/03/16 00:44:40;;;;;;;20.63;3.58;;;;;;;-1.81;100.00;101311.00;5043039;28;20127;-71
2023/03/16 00:47:06;;;;;;;20.63;4.70;;;;;;;-1.77;100.00;101317.81;5043012;28;20025;-74
2023/03/16 00:49:33;;;;;;;18.13;4.60;;;;;;;-1.78;100.00;101318.75;5042618;28;20025;-74
2023/03/16 00:52:13;;;;;;;10.75;4.13;;;;;;;-1.79;100.00;101330.09;5053666;28;20025;-73
2023/03/16 00:54:41;;;;;;;17.98;5.43;;;;;;;-1.76;100.00;101329.97;5043087;28;20625;-73
2023/03/16 00:57:07;;;;;;;14.18;3.83;;;;;;;-1.83;100.00;101331.16;5043236;28;20054;-73
2023/03/16 00:59:36;;;;;;;26.67;5.28;;;;;;;-1.94;100.00;101317.72;5042367;28;20029;-73
2023/03/16 01:02:03;;;;;;;20.65;4.35;;;;;;;-1.96;100.00;101325.63;5043158;28;20031;-73
2023/03/16 01:04:28;;;;;;;13.93;6.30;;;;;;;-2.03;100.00;101312.91;5043191;28;20033;-73
2023/03/16 01:06:54;;;;;;;19.30;5.22;;;;;;;-2.05;100.00;101314.72;5026392;28;20041;-73
2023/03/16 01:09:19;;;;;;;16.85;4.40;;;;;;;-2.10;100.00;101314.94;5042820;28;20565;-73
2023/03/16 01:11:48;;;;;;;13.00;3.90;;;;;;;-2.08;100.00;101322.69;5043078;28;20036;-73
2023/03/16 01:14:13;;;;;;;16.35;3.67;;;;;;;-1.99;100.00;101336.25;5059535;28;20040;-73
2023/03/16 01:16:39;;;;;;;12.50;3.13;;;;;;;-1.96;100.00;101330.88;5042997;28;20409;-73
2023/03/16 01:19:04;;;;;;;11.48;2.92;;;;;;;-1.95;100.00;101326.47;5042560;28;20568;-73
2023/03/16 01:21:32;;;;;;;18.48;3.17;;;;;;;-2.00;100.00;101328.44;5044173;28;20565;-73
2023/03/16 01:23:57;;;;;;;17.95;3.72;;;;;;;-2.06;100.00;101328.72;5051219;28;20118;-73
2023/03/16 01:26:24;;;;;;;23.80;4.90;;;;;;;-2.13;100.00;101328.16;5042873;28;20227;-73
2023/03/16 01:28:49;;;;;;;;;;;;;;;-2.12;100.00;101330.69;5053027;28;20481;-73
2023/03/16 01:31:15;;;;;;;13.65;3.10;;;;;;;-2.16;100.00;101326.50;5063415;28;20403;-73
2023/03/16 01:33:42;;;;;;;16.27;4.10;;;;;;;-2.24;100.00;101318.16;5046319;28;20040;-73
2023/03/16 01:36:12;;;;;;;11.63;3.58;;;;;;;-2.33;100.00;101310.69;5062339;28;20283;-73
2023/03/16 01:38:58;;;;;;;16.27;3.35;;;;;;;-2.42;100.00;101306.69;5045734;28;20045;-73
2023/03/16 01:41:26;;;;;;;10.13;3.63;;;;;;;-2.39;100.00;101313.56;5045913;28;20474;-74
2023/03/16 01:43:57;;;;;;;9.88;3.67;;;;;;;-2.38;100.00;101318.72;5057901;28;20146;-73
2023/03/16 01:46:25;;;;;;;12.63;4.60;;;;;;;-2.49;100.00;101299.19;5046193;28;20486;-74
2023/03/16 01:48:59;;;;;;;8.98;2.42;;;;;;;-2.46;100.00;101306.88;5043676;28;20486;-73
2023/03/16 01:51:43;;;;;;;19.85;3.72;;;;;;;-2.36;100.00;101318.69;5045090;28;20037;-74
2023/03/16 01:54:19;;;;;;;17.60;3.25;;;;;;;-2.24;100.00;101340.84;5042453;28;20033;-73
2023/03/16 01:56:50;;;;;;;;;;;;;;;-2.26;100.00;101342.66;5045659;28;20041;-73
2023/03/16 01:59:19;;;;;;;8.85;2.67;;;;;;;-2.33;100.00;101332.47;5057324;28;19916;-74
2023/03/16 02:01:46;;;;;;;15.68;3.53;;;;;;;-2.40;100.00;101324.94;5036119;28;20021;-74
2023/03/16 02:04:36;;;;;;;20.73;3.38;;;;;;;-2.43;100.00;101325.09;5046243;28;20579;-74
2023/03/16 02:07:05;;;;;;;21.20;3.10;;;;;;;-2.47;100.00;101326.13;5061515;28;20444;-74
2023/03/16 02:09:34;;;;;;;11.70;3.17;;;;;;;-2.47;100.00;101316.50;5045366;28;20436;-72
2023/03/16 02:12:00;;;;;;;32.13;4.90;;;;;;;-2.40;100.00;101319.72;5046839;28;20041;-73
2023/03/16 02:14:26;;;;;;;9.13;2.67;;;;;;;-2.45;100.00;101327.75;5042297;28;20163;-73
2023/03/16 02:16:54;;;;;;;15.07;3.13;;;;;;;-2.45;100.00;101326.91;5045417;28;20123;-73
2023/03/16 02:19:51;;;;;;;15.52;3.67;;;;;;;-2.50;100.00;101321.03;5045523;28;20024;-73
2023/03/16 02:22:17;;;;;;;15.55;4.43;;;;;;;-2.56;100.00;101319.50;5021854;28;20040;-74
2023/03/16 02:24:44;;;;;;;14.18;3.58;;;;;;;-2.62;100.00;101317.16;5054936;28;20033;-73
2023/03/16 02:27:16;;;;;;;13.18;3.72;;;;;;;-2.57;100.00;101321.28;5062098;28;20025;-72
2023/03/16 02:29:58;;;;;;;13.93;4.30;;;;;;;-2.57;100.00;101329.13;5044725;28;20421;-73
2023/03/16 02:32:27;;;;;;;17.08;4.90;;;;;;;-2.54;100.00;101333.38;5057919;28;20036;-73
2023/03/16 02:34:54;;;;;;;16.42;3.25;;;;;;;-2.62;100.00;101331.09;5042919;28;20029;-73
2023/03/16 02:37:20;;;;;;;15.23;4.53;;;;;;;-2.56;100.00;101341.25;5045081;28;20036;-73
2023/03/16 02:39:46;;;;;;;22.40;4.43;;;;;;;-2.51;100.00;101351.53;5053811;28;20523;-73
2023/03/16 02:42:18;;;;;;;21.02;5.68;;;;;;;-2.53;100.00;101352.53;5044465;28;20040;-72
2023/03/16 02:44:49;;;;;;;20.02;5.10;;;;;;;-2.56;100.00;101350.88;5044577;28;20057;-73
2023/03/16 02:47:30;;;;;;;15.48;3.92;;;;;;;-2.64;100.00;101340.75;5040261;28;20555;-73
2023/03/16 02:49:56;;;;;;;14.00;4.30;;;;;;;-2.69;100.00;101345.31;5042483;28;20421;-73
2023/03/16 02:52:21;;;;;;;19.08;5.18;;;;;;;-2.62;100.00;101351.16;5044930;28;20184;-73
2023/03/16 02:54:46;;;;;;;11.15;4.22;;;;;;;-2.71;100.00;101331.47;5044881;28;20053;-73
2023/03/16 02:57:12;;;;;;;19.10;3.60;;;;;;;-2.82;100.00;101334.50;5061213;28;20496;-74
2023/03/16 02:59:37;;;;;;;23.85;4.53;;;;;;;-2.84;100.00;101335.47;5044264;28;20029;-73
2023/03/16 03:02:03;;;;;;;22.38;4.88;;;;;;;-2.88;100.00;101328.66;5044610;28;20025;-73
2023/03/16 03:04:28;;;;;;;22.42;4.28;;;;;;;-2.81;100.00;101324.88;5044409;28;20033;-74
2023/03/16 03:06:54;;;;;;;22.27;5.18;;;;;;;-2.85;100.00;101326.78;5027723;28;20474;-73
2023/03/16 03:09:19;;;;;;;16.98;4.55;;;;;;;-2.78;100.00;101336.09;5044475;28;20041;-73
2023/03/16 03:11:47;;;;;;;16.42;4.57;;;;;;;-2.79;100.00;101339.63;5034952;28;20438;-73
2023/03/16 03:14:15;;;;;;;23.15;5.32;;;;;;;-2.72;100.00;101350.66;5044386;28;20068;-73
2023/03/16 03:16:45;;;;;;;23.63;5.97;;;;;;;-2.61;100.00;101358.91;5044176;28;20037;-72
2023/03/16 03:19:12;;;;;;;24.33;4.57;;;;;;;-2.58;100.00;101364.00;5043183;28;20028;-73
2023/03/16 03:21:40;;;;;;;25.27;3.95;;;;;;;-2.55;100.00;101363.91;5044180;28;20375;-73
2023/03/16 03:24:06;;;;;;;26.27;5.78;;;;;;;-2.52;100.00;101376.00;5043912;28;20129;-73
2023/03/16 03:26:32;;;;;;;20.98;4.68;;;;;;;-2.43;100.00;101378.22;5044056;28;20517;-73
2023/03/16 03:28:59;;;;;;;26.95;6.22;;;;;;;-2.33;100.00;101392.63;5043693;28;20037;-73
2023/03/16 03:31:24;;;;;;;21.75;5.32;;;;;;;-2.20;100.00;101390.34;5044024;28;20149;-74
2023/03/16 03:33:52;;;;;;;17.48;5.40;;;;;;;-2.12;100.00;101400.47;5044007;28;20036;-73
2023/03/16 03:36:18;;;;;;;20.65;5.70;;;;;;;-2.16;100.00;101402.38;5060809;28;20024;-73
2023/03/16 03:38:44;;;;;;;20.73;5.60;;;;;;;-2.28;100.00;101387.19;5038557;28;20037;-73
2023/03/16 03:41:10;;;;;;;20.65;5.85;;;;;;;-2.31;100.00;101376.88;5043939;28;20627;-72
2023/03/16 03:43:37;;;;;;;15.38;4.93;;;;;;;-2.41;100.00;101371.19;5043755;28;20107;-73
2023/03/16 03:46:03;;;;;;;;;;;;;;;-2.42;100.00;101366.84;5056256;28;20470;-73
2023/03/16 03:48:32;;;;;;;16.90;5.57;;;;;;;-2.33;100.00;101373.47;5027120;28;19909;-73
2023/03/16 03:50:58;;;;;;;47.55;6.97;;;;;;;-2.29;100.00;101376.81;5043611;28;20522;-73
2023/03/16 03:53:23;;;;;;;16.90;6.47;;;;;;;-2.25;100.00;101381.81;5043599;28;20047;-73
2023/03/16 03:56:07;;;;;;;36.58;6.38;;;;;;;-2.25;100.00;101381.81;5044541;28;20504;-74
2023/03/16 03:58:33;;;;;;;23.33;5.43;;;;;;;-2.31;100.00;101386.50;5043393;28;20024;-74
2023/03/16 04:00:59;;;;;;;15.50;6.53;;;;;;;-2.32;100.00;101388.22;5043639;28;20041;-74
2023/03/16 04:03:25;;;;;;;14.55;6.72;;;;;;;-2.34;100.00;101377.00;5027294;28;20453;-72
2023/03/16 04:05:51;;;;;;;18.77;5.43;;;;;;;-2.37;100.00;101382.34;5027317;28;20033;-73
2023/03/16 04:08:16;;;;;;;17.38;5.07;;;;;;;-2.40;100.00;101380.72;5018355;28;20031;-72
2023/03/16 04:10:43;;;;;;;;;;;;;;;-2.40;100.00;101379.88;5042802;28;20064;-73
2023/03/16 04:13:09;;;;;;;18.88;5.22;;;;;;;-2.39;100.00;101378.94;5043524;28;20030;-73
2023/03/16 04:15:37;;;;;;;14.90;6.55;;;;;;;-2.36;100.00;101386.69;5043590;28;20115;-73
2023/03/16 04:18:09;;;;;;;14.80;5.80;;;;;;;-2.36;100.00;101387.53;5052219;28;20481;-73
2023/03/16 04:20:35;;;;;;;30.42;6.60;;;;;;;-2.35;100.00;101388.38;5042937;28;20157;-73
2023/03/16 04:23:00;;;;;;;24.05;8.27;;;;;;;-2.21;100.00;101378.16;5043380;28;20063;-73
2023/03/16 04:25:27;;;;;;;22.48;6.35;;;;;;;-2.18;100.00;101379.81;5043315;28;20434;-73
2023/03/16 04:27:52;;;;;;;14.85;7.20;;;;;;;-2.18;100.00;101383.28;5043268;28;20131;-73
2023/03/16 04:30:19;;;;;;;16.98;6.28;;;;;;;-2.18;100.00;101387.66;5043125;28;20105;-73
2023/03/16 04:32:51;;;;;;;17.65;5.45;;;;;;;-2.21;100.00;101388.63;5052180;28;20029;-73
2023/03/16 04:35:18;;;;;;;15.25;5.55;;;;;;;-2.17;100.00;101387.59;5055359;28;20021;-74
2023/03/16 04:37:48;;;;;;;24.85;6.68;;;;;;;-2.22;100.00;101384.34;5043404;28;20025;-73
2023/03/16 04:40:14;;;;;;;20.13;5.82;;;;;;;-2.18;100.00;101391.13;5043042;28;20055;-74
2023/03/16 04:42:40;;;;;;;15.43;5.40;;;;;;;-2.18;100.00;101379.81;5043508;28;20037;-73
2023/03/16 04:45:07;;;;;;;20.98;5.78;;;;;;;-2.21;100.00;101372.09;5043041;28;20029;-72
2023/03/16 04:47:33;;;;;;;25.00;6.43;;;;;;;-2.19;100.00;101378.97;5043026;28;20490;-73
2023/03/16 04:50:02;;;;;;;18.25;5.93;;;;;;;-2.18;100.00;101374.56;5033077;28;20041;-73
2023/03/16 04:52:29;;;;;;;28.20;6.25;;;;;;;-2.20;100.00;101372.03;5043057;28;20036;-72
2023/03/16 04:54:55;;;;;;;26.60;8.07;;;;;;;-2.21;100.00;101359.84;5055312;28;20232;-73
2023/03/16 04:57:20;;;;;;;38.70;8.48;;;;;;;-2.21;100.00;101359.84;5018044;28;20124;-72
2023/03/16 04:59:49;;;;;;;17.63;7.55;;;;;;;-2.21;100.00;101354.63;5026513;28;20032;-72
2023/03/16 05:02:31;;;;;;;26.05;6.60;;;;;;;-2.19;100.00;101354.56;5040499;28;20131;-74
2023/03/16 05:04:58;;;;;;;20.48;7.78;;;;;;;-2.15;100.00;101350.91;5045502;28;20085;-73
2023/03/16 05:07:24;;;;;;;26.90;9.65;;;;;;;-1.92;100.00;101373.44;5047090;28;20583;-72
2023/03/16 05:09:53;;;;;;;21.90;8.10;;;;;;;-1.87;100.00;101376.72;5044248;28;20039;-74
2023/03/16 05:12:19;;;;;;;53.55;10.07;;;;;;;-1.80;100.00;101377.31;5046970;28;20033;-73
2023/03/16 05:14:46;;;;;;;23.90;9.00;;;;;;;-1.82;100.00;101376.53;5055959;28;20032;-73
2023/03/16 05:17:19;;;;;;;24.20;8.52;;;;;;;-1.78;100.00;101372.84;5042398;28;20081;-74
2023/03/16 05:19:45;;;;;;;;;;;;;;;-1.73;100.00;101369.13;5046415;28;20037;-73
2023/03/16 05:22:12;;;;;;;23.88;8.00;;;;;;;-1.87;100.00;101363.66;5031951;28;19920;-72
2023/03/16 05:24:45;;;;;;;25.55;7.53;;;;;;;-1.82;100.00;101369.53;5041538;28;20576;-73
2023/03/16 05:27:11;;;;;;;23.30;8.23;;;;;;;-1.83;100.00;101378.28;5046363;28;20029;-73
2023/03/16 05:29:36;;;;;;;19.98;7.43;;;;;;;-1.79;100.00;101382.47;5047432;28;20046;-73
2023/03/16 05:32:01;;;;;;;27.58;7.60;;;;;;;-1.73;100.00;101390.06;5046295;28;20037;-73
2023/03/16 05:34:28;;;;;;;22.77;8.65;;;;;;;-1.79;100.00;101385.09;5029821;28;20025;-74
2023/03/16 05:36:53;;;;;;;18.50;7.65;;;;;;;-1.83;100.00;101386.13;5046198;28;20102;-73
2023/03/16 05:39:21;;;;;;;27.85;7.47;;;;;;;-1.73;100.00;101384.81;5045957;28;20290;-72
2023/03/16 05:41:47;;;;;;;21.15;6.53;;;;;;;-1.57;100.00;101387.63;5055608;28;20025;-73
2023/03/16 05:44:20;;;;;;;17.98;7.20;;;;;;;-1.46;100.00;101391.50;5041959;28;20028;-74
2023/03/16 05:46:58;;;;;;;19.77;7.55;;;;;;;-1.33;100.00;101396.13;5044970;28;20032;-74
2023/03/16 05:49:24;;;;;;;24.45;6.13;;;;;;;-1.26;100.00;101399.31;5029236;28;20457;-73
2023/03/16 05:51:50;;;;;;;;;;;;;;;-1.19;100.00;101400.72;5041257;28;20065;-72
2023/03/16 05:54:15;;;;;;;14.60;6.28;;;;;;;-1.08;100.00;101411.56;5062450;28;19945;-72
2023/03/16 05:56:43;;;;;;;19.02;4.80;;;;;;;-1.01;100.00;101411.25;5045873;28;20037;-74
2023/03/16 05:59:09;;;;;;;22.85;7.38;;;;;;;-0.95;100.00;101409.22;5045616;28;20389;-74
2023/03/16 06:01:34;;;;;;;16.40;6.30;;;;;;;-0.94;100.00;101400.41;5045282;28;20033;-74
2023/03/16 06:04:02;;;;;;;25.63;5.93;;;;;;;-0.84;100.00;101400.84;5045779;28;20048;-74
2023/03/16 06:06:31;;;;;;;30.08;7.68;;;;;;;-0.80;100.00;101394.50;5045510;28;20404;-73
2023/03/16 06:09:03;;;;;;;22.13;5.78;;;;;;;-0.76;100.00;101388.19;5045359;28;20037;-73
2023/03/16 06:11:31;;;;;;;17.65;5.30;;;;;;;-0.73;100.00;101377.56;5045863;28;20037;-72
2023/03/16 06:13:58;;;;;;;23.25;6.95;;;;;;;-0.70;100.00;101376.59;5056576;28;20021;-74
2023/03/16 06:16:24;;;;;;;16.10;5.47;;;;;;;-0.60;100.00;101377.81;5019863;28;20029;-74
2023/03/16 06:18:50;;;;;;;15.65;5.70;;;;;;;-0.48;100.00;101377.22;5045147;28;20557;-73
2023/03/16 06:21:15;;;;;;;16.70;5.90;;;;;;;-0.32;100.00;101377.31;5045484;28;20033;-72
2023/03/16 06:23:41;;;;;;;17.75;6.00;;;;;;;-0.32;100.00;101368.59;5045334;28;20028;-74
2023/03/16 06:26:07;;;;;;;19.55;6.65;;;;;;;-0.13;100.00;101377.22;5044172;28;20033;-74
2023/03/16 06:28:35;;;;;;;14.95;4.68;;;;;;;-0.15;100.00;101362.47;5044463;28;20124;-72
2023/03/16 06:31:00;;;;;;;22.83;5.45;;;;;;;-0.01;100.00;101355.59;5045071;28;20128;-74
2023/03/16 06:33:30;;;;;;;11.95;4.40;;;;;;;0.15;100.00;101357.41;5045222;28;20460;-74
2023/03/16 06:35:56;;;;;;;18.20;5.80;;;;;;;0.23;100.00;101344.72;5044971;28;20050;-74
2023/03/16 06:38:29;;;;;;;19.52;6.10;;;;;;;0.35;100.00;101330.97;5045111;28;20468;-74
2023/03/16 06:41:21;;;;;;;24.05;4.53;;;;;;;0.47;100.00;101310.19;5048581;28;20091;-74
2023/03/16 06:43:47;;;;;;;25.52;3.80;;;;;;;0.45;100.00;101289.25;5028447;28;20040;-73
2023/03/16 06:46:12;;;;;;;14.38;3.10;;;;;;;0.53;100.00;101273.91;5045024;28;20247;-74
2023/03/16 06:48:38;;;;;;;14.48;4.78;;;;;;;0.51;100.00;101261.78;5027729;28;20029;-74
2023/03/16 06:51:06;;;;;;;9.93;3.80;;;;;;;0.64;100.00;101249.69;5044482;28;20029;-74
2023/03/16 06:53:31;;;;;;;14.88;4.22;;;;;;;0.70;100.00;101244.06;5044743;28;20059;-73
2023/03/16 06:55:57;;;;;;;27.60;4.65;;;;;;;0.76;100.00;101222.69;5056642;28;20033;-73
2023/03/16 06:58:25;;;;;;;15.32;3.88;;;;;;;0.80;100.00;101211.06;5028420;28;20440;-73
2023/03/16 07:00:52;;;;;;;8.40;3.20;;;;;;;0.92;100.00;101201.63;5054125;28;20047;-73
2023/03/16 07:03:18;;;;;;;25.05;3.92;;;;;;;1.05;100.00;101199.13;5056880;28;20017;-74
2023/03/16 07:05:48;;;;;;;14.02;3.80;;;;;;;1.08;100.00;101182.31;5044629;28;20508;-74
2023/03/16 07:08:14;;;;;;;12.88;3.53;;;;;;;1.21;100.00;101168.34;5044569;28;20102;-73
2023/03/16 07:10:39;;;;;;;12.82;3.15;;;;;;;1.36;100.00;101165.72;5045842;28;20465;-73
2023/03/16 07:13:05;;;;;;;15.93;3.90;;;;;;;1.38;100.00;101148.06;5037982;28;20031;-72
2023/03/16 07:15:30;;;;;;;11.90;3.60;;;;;;;1.40;100.00;101127.78;5039725;28;20470;-73
2023/03/16 07:17:56;;;;;;;10.15;2.33;;;;;;;1.59;100.00;101083.59;5055419;28;20039;-73
2023/03/16 07:20:23;;;;;;;8.40;2.42;;;;;;;1.75;100.00;101061.56;5043815;28;20033;-74
2023/03/16 07:22:48;;;;;;;13.27;3.10;;;;;;;1.90;100.00;101024.56;5045368;28;20079;-73
2023/03/16 07:25:14;;;;;;;8.55;2.17;;;;;;;2.00;100.00;100977.41;5044095;28;20091;-73
2023/03/16 07:27:47;;;;;;;7.57;3.17;;;;;;;2.01;100.00;100910.59;5043294;28;20029;-73
2023/03/16 07:30:19;;;;;;;8.30;2.63;;;;;;;1.72;100.00;100793.28;5043542;28;20505;-73
2023/03/16 07:32:46;;;;;;;8.65;2.78;;;;;;;1.61;100.00;100726.41;5044176;28;20262;-72
2023/03/16 07:35:11;;;;;;;8.02;2.67;;;;;;;1.54;100.00;100659.34;5044089;28;20029;-73
2023/03/16 07:37:37;;;;;;;7.30;3.10;;;;;;;1.57;100.00;100635.47;5022648;28;20036;-73
2023/03/16 07:40:06;;;;;;;9.88;2.88;;;;;;;1.64;100.00;100609.56;5022394;28;20024;-73
2023/03/16 07:42:34;;;;;;;14.77;4.00;;;;;;;1.86;100.00;100593.09;5027362;28;20465;-73
2023/03/16 07:45:22;;;;;;;10.38;2.58;;;;;;;1.69;100.00;100487.22;5041696;28;20098;-73
2023/03/16 07:47:48;;;;;;;16.23;3.72;;;;;;;1.91;100.00;100498.81;5043726;28;20451;-73
2023/03/16 07:50:21;;;;;;;4.80;2.47;;;;;;;1.87;100.00;100435.03;5039470;28;20069;-73
2023/03/16 07:52:48;;;;;;;5.53;2.60;;;;;;;2.01;100.00;100439.22;5044398;28;20124;-73
2023/03/16 07:55:14;;;;;;;6.97;3.00;;;;;;;1.81;100.00;100340.69;5044253;28;20071;-73
2023/03/16 07:57:41;;;;;;;11.85;2.85;;;;;;;1.77;100.00;100325.25;5043851;28;20044;-73
2023/03/16 08:00:09;;;;;;;10.93;3.13;;;;;;;2.23;100.00;100401.59;5043719;28;20044;-73
2023/03/16 08:02:43;;;;;;;7.78;3.10;;;;;;;2.23;100.00;100322.56;5044027;28;20078;-73
2023/03/16 08:05:11;;;;;;;11.10;2.50;;;;;;;2.04;100.00;100214.38;5002395;23;20051;-73
2023/03/16 08:07:40;;;;;;;8.75;3.08;;;;;;;2.01;100.00;100210.16;4966691;28;20030;-71
2023/03/16 08:10:15;;;;;;;13.60;3.72;;;;;;;2.14;100.00;100235.53;4980699;28;20582;-70
2023/03/16 08:13:06;;;;;;;12.35;2.80;;;;;;;1.88;100.00;100180.50;4965174;28;20050;-72
2023/03/16 08:15:32;;;;;;;13.93;3.10;;;;;;;2.12;100.00;100233.00;4945751;28;20031;-74
2023/03/16 08:18:05;;;;;;;14.05;3.15;;;;;;;2.61;100.00;100357.41;4945918;28;20118;-71
2023/03/16 08:20:32;;;;;;;11.20;3.92;;;;;;;2.84;100.00;100318.69;4945376;28;20035;-73
2023/03/16 08:22:57;;;;;;;11.15;3.53;;;;;;;3.05;100.00;100295.03;4948083;28;20019;-73
2023/03/16 08:25:26;;;;;;;16.50;3.20;;;;;;;3.36;100.00;100325.00;4945908;28;20031;-73
2023/03/16 08:27:59;;;;;;;4.70;2.90;;;;;;;3.61;100.00;100288.66;4946612;28;20035;-74
2023/03/16 08:30:25;;;;;;;10.80;3.80;;;;;;;4.41;100.00;100354.03;4960732;28;20031;-73
2023/03/16 08:33:07;;;;;;;7.30;2.92;;;;;;;4.73;100.00;100123.81;4947697;28;20291;-74
2023/03/16 08:35:34;;;;;;;;;;;;;;;4.42;100.00;99827.06;4961975;28;20031;-74
2023/03/16 08:38:00;;;;;;;10.52;3.40;;;;;;;4.33;100.00;99711.66;4945542;28;20331;-71
2023/03/16 08:40:28;;;;;;;10.60;4.50;;;;;;;4.40;100.00;99747.94;4964683;28;20047;-73
2023/03/16 08:42:54;;;;;;;10.32;4.82;;;;;;;3.79;100.00;99480.00;4947320;29;20493;-74
2023/03/16 08:45:20;;;;;;;;;;;;;;;3.41;100.00;99404.53;4965850;28;20575;-71
2023/03/16 08:47:45;;;;;;;4.95;2.58;;;;;;;3.04;100.00;99417.78;4965369;28;19918;-74
2023/03/16 08:50:12;;;;;;;4.97;2.58;;;;;;;3.21;100.00;99587.63;4964838;28;20031;-74
2023/03/16 08:52:39;;;;;;;9.03;3.37;;;;;;;3.59;100.00;99660.56;4950187;29;20105;-74
2023/03/16 08:55:06;;;;;;;14.57;3.17;;;;;;;3.38;100.00;99682.69;4950279;28;20171;-71
2023/03/16 08:57:34;;;;;;;6.55;3.17;;;;;;;3.73;100.00;99741.94;4964946;28;20034;-74
2023/03/16 09:00:00;;;;;;;9.70;3.58;;;;;;;3.44;100.00;99651.44;4949887;28;20114;-71
2023/03/16 09:02:26;;;;;;;12.00;4.05;;;;;;;3.46;100.00;99695.16;4949035;29;20035;-73
2023/03/16 09:04:51;;;;;;;9.98;3.50;;;;;;;3.17;100.00;99634.56;4948063;28;20041;-74
2023/03/16 09:07:17;;;;;;;5.45;3.35;;;;;;;3.57;100.00;99778.63;4948727;29;20036;-74
2023/03/16 09:09:44;;;;;;;7.38;3.03;;;;;;;3.57;100.00;99609.72;4949741;29;20027;-73
2023/03/16 09:12:10;;;;;;;10.57;3.83;;;;;;;3.81;100.00;99644.34;4949929;29;20431;-74
2023/03/16 09:14:37;;;;;;;8.27;3.13;;;;;;;4.13;100.00;99636.97;4949935;28;20492;-74
2023/03/16 09:17:04;;;;;;;9.90;3.75;;;;;;;4.32;100.00;99559.38;4950052;28;20039;-74
2023/03/16 09:19:30;;;;;;;7.10;3.08;;;;;;;4.31;100.00;99365.69;4948197;29;20039;-73
2023/03/16 09:21:55;;;;;;;5.43;2.78;;;;;;;4.70;100.00;99478.06;4964720;28;20031;-73
2023/03/16 09:24:21;;;;;;;4.77;2.13;;;;;;;4.67;100.00;99174.38;4949762;28;20046;-74
2023/03/16 09:26:47;;;;;;;7.53;2.53;;;;;;;4.38;100.00;99023.19;4948293;29;20039;-74
2023/03/16 09:29:13;;;;;;;17.87;4.97;;;;;;;3.80;100.00;98972.13;4963931;28;20110;-73
2023/03/16 09:31:39;;;;;;;9.95;2.75;;;;;;;4.09;100.00;99197.97;4964472;28;20295;-74
2023/03/16 09:34:04;;;;;;;5.25;2.13;;;;;;;4.29;100.00;99158.09;4949653;28;20023;-74
2023/03/16 09:36:30;;;;;;;5.30;2.38;;;;;;;4.58;100.00;99155.81;4964352;28;20125;-71
2023/03/16 09:38:55;;;;;;;5.57;2.30;;;;;;;4.55;100.00;98952.66;4947907;29;20126;-72
2023/03/16 09:41:43;;;;;;;5.67;2.10;;;;;;;4.42;98.88;98854.56;4948287;28;20043;-73
2023/03/16 09:44:47;;;;;;;7.13;3.15;;;;;;;4.32;99.15;98861.84;4951075;28;20027;-74
2023/03/16 09:47:15;;;;;;;4.25;2.28;;;;;;;4.37;99.80;99010.13;4946409;29;20095;-74
2023/03/16 09:49:49;;;;;;;10.18;1.77;;;;;;;4.68;97.92;98943.38;4947443;28;20031;-75
2023/03/16 09:52:47;;;;;;;7.53;2.03;;;;;;;4.78;95.26;98748.38;4938355;29;20361;-71
2023/03/16 09:55:26;;;;;;;5.55;1.42;;;;;;;4.78;91.80;98431.13;4963613;28;20046;-73
2023/03/16 09:57:53;;;;;;;7.22;1.88;;;;;;;4.62;90.66;98300.78;4948991;28;20518;-74
2023/03/16 10:00:22;;;;;;;6.32;2.33;;;;;;;4.75;90.21;98362.75;4948788;29;20189;-74
2023/03/16 10:03:13;;;;;;;4.55;1.40;;;;;;;4.95;89.59;98397.41;4947825;28;20039;-74
2023/03/16 10:05:39;;;;;;;4.72;1.95;;;;;;;5.72;88.18;98497.47;4947492;29;20035;-74
2023/03/16 10:08:23;;;;;;;9.25;2.75;;;;;;;5.20;87.19;98265.66;4947851;28;20027;-71
2023/03/16 10:11:16;;;;;;;6.40;2.17;;;;;;;5.00;87.56;98342.94;4947896;29;20051;-74
2023/03/16 10:13:54;;;;;;;5.03;1.85;;;;;;;5.28;86.93;98400.44;4947646;28;20035;-74
2023/03/16 10:16:26;;;;;;;6.97;1.50;;;;;;;5.50;86.37;98425.09;4964200;28;20039;-72
2023/03/16 10:19:10;;;;;;;9.07;2.85;;;;;;;5.91;85.87;98528.63;4961008;28;20074;-73
2023/03/16 10:21:39;;;;;;;6.28;1.73;;;;;;;5.89;84.27;98378.88;4947723;29;20506;-74
2023/03/16 10:24:17;;;;;;;7.82;2.30;;;;;;;6.18;84.74;98555.47;4948749;28;20015;-74
2023/03/16 10:26:53;;;;;;;4.95;1.67;;;;;;;5.98;82.72;98220.69;4963422;28;20050;-74
2023/03/16 10:29:18;;;;;;;4.75;1.27;;;;;;;5.98;82.09;98233.94;4958679;28;20034;-74
2023/03/16 10:31:44;;;;;;;3.97;1.50;;;;;;;5.96;81.14;98127.38;4948544;29;20062;-74
2023/03/16 10:34:10;;;;;;;8.23;1.90;;;;;;;5.82;80.40;98063.72;4949010;28;20298;-70
2023/03/16 10:36:40;;;;;;;6.57;1.75;;;;;;;6.30;80.09;98222.69;4947307;29;20023;-72
2023/03/16 10:39:09;;;;;;;6.25;1.30;;;;;;;6.17;79.17;98018.63;4948166;28;20399;-74
2023/03/16 10:41:37;;;;;;;5.32;1.70;;;;;;;6.01;77.94;97891.88;4931157;29;20598;-72
2023/03/16 10:44:11;;;;;;;4.28;1.40;;;;;;;5.88;78.60;97978.19;4963125;28;20043;-74
2023/03/16 10:46:47;;;;;;;4.70;1.75;;;;;;;5.79;77.74;97886.72;4948359;29;20043;-73
2023/03/16 10:49:24;;;;;;;1.92;1.20;;;;;;;6.23;76.55;97974.63;4947344;29;20027;-75
2023/03/16 10:51:53;;;;;;;4.85;1.25;;;;;;;6.06;75.51;97764.94;4948687;28;20166;-71
2023/03/16 10:55:06;;;;;;;6.82;1.60;;;;;;;6.16;74.13;97634.72;4943711;28;20074;-74
2023/03/16 10:57:34;;;;;;;3.53;1.38;;;;;;;6.58;74.24;97839.22;4945331;29;20050;-74
2023/03/16 11:00:15;;;;;;;5.85;2.10;;;;;;;6.15;73.15;97607.41;4962618;28;20070;-74
2023/03/16 11:02:41;;;;;;;3.67;1.17;;;;;;;6.37;73.20;97740.44;4947127;28;20385;-74
2023/03/16 11:05:17;;;;;;;5.70;1.63;;;;;;;6.70;71.71;97674.00;4962682;28;20031;-74
2023/03/16 11:07:57;;;;;;;2.88;1.05;;;;;;;6.69;71.44;97642.41;4948184;29;20027;-74
2023/03/16 11:10:26;;;;;;;2.33;1.05;;;;;;;6.64;69.37;97430.97;4943683;29;20038;-71
2023/03/16 11:12:52;;;;;;;7.90;2.28;;;;;;;6.76;68.54;97375.38;4945816;29;20090;-73
2023/03/16 11:15:19;;;;;;;8.30;1.30;;;;;;;6.47;67.07;97090.72;4962675;28;20456;-74
2023/03/16 11:17:46;;;;;;;;;;;;;;;6.37;66.88;97090.44;4963186;28;20184;-73
2023/03/16 11:20:25;;;;;;;5.75;1.30;;;;;;;6.64;67.15;97234.81;4946046;29;19925;-72
2023/03/16 11:22:51;;;;;;;3.03;1.30;;;;;;;6.63;66.90;97233.22;4962478;28;20061;-74
2023/03/16 11:25:40;;;;;;;4.20;0.95;;;;;;;6.80;66.27;97243.19;4943101;29;20472;-74
2023/03/16 11:28:07;;;;;;;2.60;1.30;;;;;;;7.00;65.97;97298.63;4947256;29;20031;-73
2023/03/16 11:30:41;;;;;;;4.60;1.30;;;;;;;7.14;66.29;97382.31;4946109;29;20024;-75